Terminal Aerodrome Forecast
Issued by NWS Corpus Christi, TX

Current Version | Previous Version | Text Only | Print | Product List | Glossary Off
Versions: 1 2 3 4 5 6 7 8 9 10 11 12 13 14 15

000
FTUS44 KCRP 292300
TAFCRP
TAF
KCRP 292322Z 3000/3024 16020G25KT P6SM SKC
     FM300300 16016KT P6SM FEW018
     FM301100 17007KT 6SM BR BKN011
     FM301500 17015G22KT P6SM SCT020 BKN250
      TEMPO 3015/3018 BKN020 BKN250=

USA.gov is the U.S. government's official web portal to all federal, state and local government web resources and services.